Time;durP1;ratioP1;P1;durP2;ratioP2;P2;SDS_P1;SDS_P2;PMS_P1;PMS_P2;Temp;Humidity;BMP_temperature;BMP_pressure;BME280_temperature;BME280_humidity;BME280_pressure;Samples;Min_cycle;Max_cycle;Signal;HPM_P1;HPM_P2
2021/04/26 08:36:52;;;;;;;3.88;1.40;;;10.30;99.90;;;;;;5122993;27;20329;-55
2021/04/26 08:39:18;;;;;;;340.15;22.52;;;10.30;99.90;;;;;;5107881;28;20028;-57
2021/04/26 08:41:44;;;;;;;231.38;14.15;;;10.40;99.90;;;;;;5112948;28;20473;-54
2021/04/26 08:44:10;;;;;;;3.38;1.63;;;10.60;99.00;;;;;;5109073;28;20039;-56
2021/04/26 08:46:36;;;;;;;2.33;1.60;;;10.70;98.40;;;;;;5091570;28;20031;-55
2021/04/26 08:49:02;;;;;;;3.55;1.70;;;10.80;97.70;;;;;;5110441;28;20546;-56
2021/04/26 08:51:30;;;;;;;10.63;2.00;;;10.90;97.50;;;;;;5104739;28;20039;-56
2021/04/26 08:53:56;;;;;;;4.38;1.50;;;11.10;95.80;;;;;;5113659;28;20024;-56
2021/04/26 08:56:21;;;;;;;2.40;1.23;;;11.20;95.50;;;;;;5105252;28;20108;-57
2021/04/26 08:58:47;;;;;;;15.23;1.70;;;11.30;93.80;;;;;;5108055;27;20441;-55
2021/04/26 09:01:13;;;;;;;4.47;1.80;;;11.30;94.70;;;;;;5109727;28;20024;-57
2021/04/26 09:03:39;;;;;;;7.25;1.92;;;11.40;94.30;;;;;;5105355;28;20057;-57
2021/04/26 09:06:12;;;;;;;3.05;1.60;;;11.60;94.50;;;;;;5109887;28;20492;-59
2021/04/26 09:08:37;;;;;;;5.00;1.20;;;11.70;95.00;;;;;;5108841;28;20031;-59
2021/04/26 09:11:05;;;;;;;4.72;1.60;;;11.80;95.10;;;;;;5105894;28;20684;-58
2021/04/26 09:13:30;;;;;;;2.70;1.50;;;11.90;95.70;;;;;;5107213;28;20066;-58
2021/04/26 09:16:11;;;;;;;11.30;1.52;;;11.90;90.90;;;;;;5110806;28;20456;-58
2021/04/26 09:18:45;;;;;;;4.90;1.40;;;11.90;90.80;;;;;;5108305;28;20385;-57
2021/04/26 09:21:17;;;;;;;4.57;1.50;;;11.90;90.40;;;;;;5110605;28;20574;-57
2021/04/26 09:23:44;;;;;;;9.15;1.40;;;11.70;90.00;;;;;;5103661;28;20036;-57
2021/04/26 09:26:40;;;;;;;3.67;1.25;;;11.80;90.10;;;;;;5109108;28;20032;-58
2021/04/26 09:29:19;;;;;;;2.78;1.27;;;11.90;88.70;;;;;;5089250;28;20603;-59
2021/04/26 09:32:10;;;;;;;2.70;1.20;;;12.00;88.40;;;;;;5087864;28;20035;-58
2021/04/26 09:34:41;;;;;;;159.73;10.05;;;12.20;88.70;;;;;;5106646;28;20024;-54
2021/04/26 09:37:23;;;;;;;115.70;8.23;;;12.40;91.60;;;;;;5106414;28;20024;-56
2021/04/26 09:39:58;;;;;;;45.45;2.80;;;12.70;88.00;;;;;;5106009;28;20292;-57
2021/04/26 09:42:45;;;;;;;4.45;1.23;;;12.80;89.20;;;;;;5106278;28;20473;-58
2021/04/26 09:45:27;;;;;;;8.60;1.83;;;12.90;88.80;;;;;;5108873;28;20493;-57
2021/04/26 09:48:16;;;;;;;34.67;2.90;;;13.10;90.30;;;;;;5096477;28;20051;-57
2021/04/26 09:51:04;;;;;;;5.60;1.20;;;13.30;85.90;;;;;;5090917;28;20047;-57
2021/04/26 09:53:55;;;;;;;3.35;1.30;;;13.20;80.20;;;;;;5092295;28;20493;-55
2021/04/26 09:56:33;;;;;;;4.25;1.30;;;13.10;80.40;;;;;;5090714;28;20493;-58
2021/04/26 09:59:00;;;;;;;12.23;1.52;;;13.30;83.80;;;;;;5095481;28;20015;-59
2021/04/26 10:01:27;;;;;;;170.43;12.20;;;13.60;84.00;;;;;;5091490;28;20431;-59
2021/04/26 10:03:53;;;;;;;4.28;1.40;;;13.60;88.50;;;;;;5093155;28;20115;-59
2021/04/26 10:06:21;;;;;;;4.65;1.50;;;13.80;79.00;;;;;;5097748;28;20035;-58
2021/04/26 10:08:48;;;;;;;3.92;1.20;;;13.90;78.50;;;;;;5090595;28;20591;-59
2021/04/26 10:11:16;;;;;;;2.50;1.30;;;14.00;77.70;;;;;;5090939;28;20042;-61
2021/04/26 10:13:43;;;;;;;3.22;1.20;;;14.00;75.30;;;;;;5090943;28;20032;-59
2021/04/26 10:16:13;;;;;;;9.52;1.90;;;14.00;76.20;;;;;;5091847;28;20024;-57
2021/04/26 10:18:43;;;;;;;6.80;1.70;;;14.20;79.00;;;;;;5090874;28;20117;-59
2021/04/26 10:21:17;;;;;;;4.57;1.45;;;14.10;84.90;;;;;;5089478;28;20020;-59
2021/04/26 10:23:44;;;;;;;;;;;14.50;81.30;;;;;;5089751;28;20020;-57
2021/04/26 10:26:42;;;;;;;22.90;1.83;;;14.60;81.20;;;;;;5091699;28;19915;-57
2021/04/26 10:29:29;;;;;;;214.10;14.52;;;14.50;78.80;;;;;;5055410;28;20043;-58
2021/04/26 10:32:01;;;;;;;4.32;1.65;;;14.80;81.10;;;;;;5090721;28;20374;-59
2021/04/26 10:34:30;;;;;;;7.97;1.60;;;15.20;83.80;;;;;;5092587;28;20251;-56
2021/04/26 10:37:00;;;;;;;2.70;1.23;;;15.40;78.50;;;;;;5091944;28;20039;-57
2021/04/26 10:39:27;;;;;;;2.15;1.38;;;15.50;71.30;;;;;;5088722;28;20020;-56
2021/04/26 10:41:55;;;;;;;3.50;1.30;;;15.50;77.80;;;;;;5093123;28;20024;-59
2021/04/26 10:44:40;;;;;;;2.35;1.50;;;15.60;70.10;;;;;;5091866;28;20088;-58
2021/04/26 10:47:17;;;;;;;244.35;14.32;;;15.60;69.80;;;;;;5089315;28;20016;-58
2021/04/26 10:49:47;;;;;;;7.85;2.10;;;15.40;77.30;;;;;;5097902;28;20039;-56
2021/04/26 10:52:30;;;;;;;77.80;4.90;;;15.60;75.10;;;;;;5086188;28;20523;-54
2021/04/26 10:55:02;;;;;;;11.63;1.90;;;15.70;77.00;;;;;;5084904;28;20036;-56
2021/04/26 10:57:40;;;;;;;4.68;1.77;;;15.80;76.30;;;;;;5090355;28;20423;-56
2021/04/26 11:00:37;;;;;;;216.43;14.07;;;16.00;75.50;;;;;;5089492;28;20030;-58
2021/04/26 11:03:06;;;;;;;5.18;1.80;;;16.30;73.20;;;;;;5086178;28;20089;-57
2021/04/26 11:05:43;;;;;;;4.72;1.70;;;16.20;66.40;;;;;;5105394;28;20050;-56
2021/04/26 11:08:35;;;;;;;4.25;1.90;;;15.80;66.70;;;;;;5088350;28;20073;-57
2021/04/26 11:13:35;;;;;;;6.68;1.73;;;16.00;69.50;;;;;;5090630;28;20044;-58
2021/04/26 11:16:13;;;;;;;9.77;1.60;;;16.30;75.10;;;;;;5093318;28;20044;-58
2021/04/26 11:18:44;;;;;;;36.15;3.78;;;16.50;75.30;;;;;;5104959;28;20537;-56
2021/04/26 11:21:11;;;;;;;381.10;28.58;;;16.60;70.90;;;;;;5093700;28;20497;-58
2021/04/26 11:23:46;;;;;;;6.15;1.55;;;16.60;74.80;;;;;;5087786;28;20020;-56
2021/04/26 11:26:13;;;;;;;7.40;1.67;;;16.90;62.40;;;;;;5094323;28;20032;-58
2021/04/26 11:29:01;;;;;;;3.38;1.58;;;16.80;63.40;;;;;;5083029;28;20476;-56
2021/04/26 11:31:56;;;;;;;5.70;2.25;;;16.80;63.80;;;;;;5093048;28;20039;-56
2021/04/26 11:34:22;;;;;;;7.15;2.22;;;16.80;61.00;;;;;;5094327;28;20031;-56
2021/04/26 11:37:03;;;;;;;4.65;2.13;;;16.80;62.90;;;;;;5090623;28;20473;-56
2021/04/26 11:39:31;;;;;;;8.20;1.48;;;16.60;63.40;;;;;;5087925;28;20031;-57
2021/04/26 11:41:57;;;;;;;3.40;1.73;;;16.50;58.90;;;;;;5092243;28;20043;-59
2021/04/26 11:44:27;;;;;;;3.13;1.55;;;16.40;60.30;;;;;;5097376;28;20024;-56
2021/04/26 11:46:54;;;;;;;3.25;1.50;;;16.80;68.90;;;;;;5083275;28;20098;-58
2021/04/26 11:49:23;;;;;;;3.15;1.73;;;17.20;67.00;;;;;;5088047;28;20121;-57
2021/04/26 11:51:53;;;;;;;7.05;1.73;;;17.40;59.60;;;;;;5088571;28;20031;-58
2021/04/26 11:54:25;;;;;;;5.47;1.65;;;17.40;58.70;;;;;;5087570;28;20073;-58
2021/04/26 11:57:07;;;;;;;412.10;29.75;;;17.20;58.40;;;;;;5089908;28;20035;-54
2021/04/26 11:59:34;;;;;;;5.43;1.90;;;17.10;74.20;;;;;;5089387;28;20017;-57
2021/04/26 12:02:00;;;;;;;4.35;1.48;;;17.30;58.50;;;;;;5091707;28;20456;-55
2021/04/26 12:04:40;;;;;;;2.20;1.60;;;17.30;58.40;;;;;;5089653;28;20473;-57
2021/04/26 12:07:11;;;;;;;3.03;1.90;;;17.00;57.40;;;;;;5090445;28;20028;-57
2021/04/26 12:09:38;;;;;;;3.35;1.80;;;17.00;57.30;;;;;;5094387;28;20107;-57
2021/04/26 12:12:06;;;;;;;4.05;1.50;;;16.70;58.50;;;;;;5087161;28;20020;-57
2021/04/26 12:14:33;;;;;;;2.97;1.42;;;16.90;58.80;;;;;;5089712;28;20043;-58
2021/04/26 12:17:20;;;;;;;4.60;1.65;;;17.00;57.10;;;;;;5089086;28;20032;-59
2021/04/26 12:19:47;;;;;;;3.42;1.50;;;17.30;57.40;;;;;;5094291;28;20040;-57
2021/04/26 12:22:14;;;;;;;3.47;1.45;;;17.30;56.50;;;;;;5090894;28;20561;-59
2021/04/26 12:24:41;;;;;;;4.45;1.90;;;17.30;56.10;;;;;;5094262;28;20023;-58
2021/04/26 12:27:15;;;;;;;16.25;3.22;;;17.30;56.10;;;;;;5091656;28;20036;-58
2021/04/26 12:29:41;;;;;;;2.87;1.90;;;17.10;59.80;;;;;;5093217;28;20489;-57
2021/04/26 12:32:09;;;;;;;325.73;22.35;;;17.20;56.90;;;;;;5089487;28;20267;-56
2021/04/26 12:34:58;;;;;;;138.75;9.60;;;17.50;61.80;;;;;;5089557;28;20058;-59
2021/04/26 12:37:32;;;;;;;7.63;1.85;;;17.90;67.20;;;;;;5088602;28;20031;-60
2021/04/26 12:40:16;;;;;;;21.70;2.00;;;17.40;57.40;;;;;;5088530;28;20016;-58
2021/04/26 12:42:50;;;;;;;3.78;1.73;;;17.90;59.90;;;;;;5087105;28;20551;-57
2021/04/26 12:45:35;;;;;;;3.10;1.67;;;18.10;54.80;;;;;;5090256;28;20054;-58
2021/04/26 12:48:04;;;;;;;2.58;1.70;;;18.00;54.40;;;;;;5089667;28;20130;-58
2021/04/26 12:50:34;;;;;;;3.63;1.70;;;17.90;54.40;;;;;;5084996;28;20386;-57
2021/04/26 12:53:18;;;;;;;2.55;1.65;;;17.80;55.40;;;;;;5091625;28;20420;-60
2021/04/26 12:56:00;;;;;;;3.20;1.83;;;17.80;54.70;;;;;;5089014;28;20032;-56
2021/04/26 12:58:50;;;;;;;8.68;1.80;;;17.70;56.90;;;;;;5087071;28;20028;-56
2021/04/26 13:01:20;;;;;;;4.03;1.60;;;17.80;53.90;;;;;;5084976;28;20487;-55
2021/04/26 13:03:48;;;;;;;2.75;1.33;;;18.00;54.20;;;;;;5087737;28;20607;-55
2021/04/26 13:06:16;;;;;;;4.95;2.03;;;18.20;55.30;;;;;;5069477;28;20035;-59
2021/04/26 13:08:44;;;;;;;4.78;1.40;;;18.10;53.60;;;;;;5088403;28;20053;-57
2021/04/26 13:11:23;;;;;;;4.13;1.48;;;18.10;52.90;;;;;;5085474;28;20093;-56
2021/04/26 13:14:04;;;;;;;6.55;1.85;;;18.10;54.50;;;;;;5088195;28;20086;-55
2021/04/26 13:16:33;;;;;;;5.93;1.95;;;18.20;54.40;;;;;;5082711;28;20024;-59
2021/04/26 13:19:03;;;;;;;3.53;1.50;;;18.20;53.50;;;;;;5088135;28;20027;-58
2021/04/26 13:21:39;;;;;;;7.22;1.75;;;18.50;54.80;;;;;;5086344;28;20024;-55
2021/04/26 13:24:27;;;;;;;4.35;1.55;;;18.50;54.40;;;;;;5091557;28;20106;-57
2021/04/26 13:27:01;;;;;;;3.22;1.45;;;18.40;54.50;;;;;;5095041;28;20035;-57
2021/04/26 13:29:27;;;;;;;6.80;1.63;;;18.30;53.40;;;;;;5094271;28;20039;-57
2021/04/26 13:31:55;;;;;;;2.65;1.67;;;18.30;53.20;;;;;;5095708;28;20119;-58
2021/04/26 13:34:22;;;;;;;4.65;1.58;;;18.40;53.20;;;;;;5087360;28;20024;-57
2021/04/26 13:36:48;;;;;;;2.58;1.77;;;18.40;52.30;;;;;;5088672;28;20085;-55
2021/04/26 13:39:16;;;;;;;5.57;1.73;;;18.50;52.60;;;;;;5091244;28;20024;-59
2021/04/26 13:41:43;;;;;;;22.42;2.45;;;18.40;56.70;;;;;;5090722;28;20089;-57
2021/04/26 13:44:09;;;;;;;4.82;1.88;;;18.70;67.00;;;;;;5091357;28;20035;-55
2021/04/26 13:46:35;;;;;;;5.97;1.70;;;18.90;55.40;;;;;;5091923;28;20032;-55
2021/04/26 13:49:02;;;;;;;23.92;2.78;;;19.20;51.90;;;;;;5091774;28;20088;-58
2021/04/26 13:51:28;;;;;;;4.38;2.15;;;19.20;60.90;;;;;;5094080;28;20492;-55
2021/04/26 13:53:54;;;;;;;3.20;2.00;;;18.70;59.40;;;;;;5092343;28;20053;-57
2021/04/26 13:56:19;;;;;;;6.63;2.28;;;18.30;56.40;;;;;;5071087;28;20266;-57
2021/04/26 13:58:45;;;;;;;3.13;1.60;;;18.30;55.10;;;;;;5088130;28;20150;-56
2021/04/26 14:01:12;;;;;;;3.75;1.50;;;18.70;52.30;;;;;;5091451;28;20028;-56
2021/04/26 14:03:37;;;;;;;10.93;2.10;;;18.90;50.60;;;;;;5095232;28;20483;-57
2021/04/26 14:06:04;;;;;;;8.98;2.50;;;18.70;57.80;;;;;;5090069;28;20068;-54
2021/04/26 14:08:30;;;;;;;154.18;10.18;;;18.80;59.20;;;;;;5091408;28;20024;-58
2021/04/26 14:10:56;;;;;;;2.78;1.65;;;18.90;59.60;;;;;;5089583;28;20031;-57
2021/04/26 14:13:22;;;;;;;3.42;2.20;;;18.90;51.30;;;;;;5088290;28;20032;-58
2021/04/26 14:15:48;;;;;;;9.38;2.40;;;19.00;50.10;;;;;;5091615;28;20062;-56
2021/04/26 14:18:14;;;;;;;7.32;2.38;;;18.90;50.40;;;;;;5089836;28;20091;-57
2021/04/26 14:20:41;;;;;;;9.43;2.33;;;18.80;57.10;;;;;;5090309;28;20103;-57
2021/04/26 14:23:09;;;;;;;3.72;1.70;;;18.90;62.30;;;;;;5089874;28;20397;-55
2021/04/26 14:25:35;;;;;;;7.60;2.50;;;19.00;59.30;;;;;;5092223;28;20039;-56
2021/04/26 14:28:01;;;;;;;5.72;2.40;;;18.80;58.10;;;;;;5092357;28;20443;-56
2021/04/26 14:30:27;;;;;;;2.40;2.10;;;18.90;52.00;;;;;;5092931;28;20051;-56
2021/04/26 14:32:54;;;;;;;5.95;1.83;;;19.00;51.00;;;;;;5098934;28;20397;-55
2021/04/26 14:35:19;;;;;;;7.47;2.53;;;18.80;55.30;;;;;;5094491;28;20035;-54
2021/04/26 14:37:45;;;;;;;5.90;1.95;;;19.00;51.40;;;;;;5093563;28;20030;-52
2021/04/26 14:40:11;;;;;;;5.75;2.30;;;18.70;50.60;;;;;;5094235;28;20392;-54
2021/04/26 14:42:36;;;;;;;5.05;2.38;;;18.80;51.10;;;;;;5096417;28;20496;-56
2021/04/26 14:45:03;;;;;;;4.35;2.47;;;19.00;51.40;;;;;;5085138;28;20028;-55
2021/04/26 14:47:29;;;;;;;4.72;2.03;;;19.10;50.00;;;;;;5086355;28;20087;-58
2021/04/26 14:49:55;;;;;;;9.07;2.47;;;19.20;50.00;;;;;;5090244;28;20032;-58
2021/04/26 14:52:20;;;;;;;7.88;2.38;;;19.10;49.40;;;;;;5090417;28;20035;-54
2021/04/26 14:54:46;;;;;;;3.40;2.22;;;18.80;56.70;;;;;;5096098;28;20031;-56
2021/04/26 14:57:12;;;;;;;9.75;3.28;;;18.90;51.70;;;;;;5094034;28;20020;-54
2021/04/26 14:59:37;;;;;;;6.20;3.13;;;18.90;50.10;;;;;;5091171;28;20096;-55
2021/04/26 15:02:03;;;;;;;9.15;3.42;;;18.40;51.20;;;;;;5090082;28;20032;-56
2021/04/26 15:04:28;;;;;;;8.68;2.85;;;17.90;53.40;;;;;;5088629;28;20040;-55
2021/04/26 15:06:55;;;;;;;8.45;3.85;;;18.00;50.60;;;;;;5092065;28;20031;-57
2021/04/26 15:09:21;;;;;;;6.40;2.65;;;18.20;50.40;;;;;;5086818;28;20016;-53
2021/04/26 15:11:48;;;;;;;4.25;2.80;;;18.30;51.90;;;;;;5090632;28;20115;-58
2021/04/26 15:14:15;;;;;;;7.03;2.58;;;18.40;52.60;;;;;;5073448;28;20034;-55
2021/04/26 15:16:40;;;;;;;4.38;2.53;;;18.80;54.30;;;;;;5089740;28;20105;-52
2021/04/26 15:19:06;;;;;;;5.25;2.78;;;18.60;54.00;;;;;;5094806;28;20059;-56
2021/04/26 15:21:31;;;;;;;7.55;4.07;;;18.60;55.50;;;;;;5098156;28;20113;-56
2021/04/26 15:23:57;;;;;;;4.80;2.90;;;18.80;51.50;;;;;;5097206;28;20512;-56
2021/04/26 15:26:23;;;;;;;5.50;3.15;;;18.80;50.10;;;;;;5089083;28;20028;-57
2021/04/26 15:28:48;;;;;;;7.22;3.10;;;18.70;52.20;;;;;;5090868;28;20114;-57
2021/04/26 15:31:17;;;;;;;10.40;4.43;;;18.80;52.70;;;;;;5075552;28;20508;-56
2021/04/26 15:33:43;;;;;;;6.22;3.90;;;18.80;54.40;;;;;;5097638;28;20489;-53
2021/04/26 15:36:09;;;;;;;14.63;4.43;;;18.80;51.30;;;;;;5072795;28;20028;-53
2021/04/26 15:38:35;;;;;;;7.22;3.85;;;18.50;51.00;;;;;;5090726;28;20478;-53
2021/04/26 15:41:00;;;;;;;10.98;4.15;;;18.30;52.00;;;;;;5088256;28;20032;-55
2021/04/26 15:43:27;;;;;;;6.93;4.18;;;18.10;51.90;;;;;;5083921;28;20102;-58
2021/04/26 15:45:52;;;;;;;9.18;4.35;;;18.10;54.90;;;;;;5090097;28;20031;-57
2021/04/26 15:48:18;;;;;;;9.85;5.03;;;18.20;52.70;;;;;;5091647;28;20028;-54
2021/04/26 15:50:46;;;;;;;11.15;4.68;;;18.20;53.10;;;;;;5091823;28;20253;-56
2021/04/26 15:53:12;;;;;;;8.20;4.63;;;18.20;57.00;;;;;;5091160;28;20020;-57
2021/04/26 15:55:38;;;;;;;11.60;4.25;;;18.20;52.80;;;;;;5089819;28;20039;-55
2021/04/26 15:58:04;;;;;;;11.75;4.53;;;17.80;56.60;;;;;;5091500;28;20103;-58
2021/04/26 16:00:31;;;;;;;11.90;4.20;;;17.80;55.70;;;;;;5086321;28;20047;-59
2021/04/26 16:02:58;;;;;;;8.88;4.72;;;18.00;54.00;;;;;;5087042;28;20028;-59
2021/04/26 16:05:25;;;;;;;8.70;4.57;;;18.00;51.70;;;;;;5093169;28;20074;-59
2021/04/26 16:07:51;;;;;;;10.43;4.53;;;18.00;51.80;;;;;;5086994;28;20371;-56
2021/04/26 16:10:16;;;;;;;9.27;4.50;;;18.00;51.30;;;;;;5092456;28;20084;-59
2021/04/26 16:12:42;;;;;;;10.18;4.63;;;17.80;51.70;;;;;;5093299;28;20028;-58
2021/04/26 16:15:09;;;;;;;9.90;4.38;;;18.00;51.30;;;;;;5088799;28;20123;-58
2021/04/26 16:17:36;;;;;;;8.18;4.35;;;18.00;52.00;;;;;;5089596;28;20039;-58
2021/04/26 16:20:04;;;;;;;11.45;4.03;;;17.80;51.00;;;;;;5090741;28;20021;-57
2021/04/26 16:22:30;;;;;;;11.77;4.57;;;17.70;51.00;;;;;;5087729;28;20035;-57
2021/04/26 16:24:55;;;;;;;9.30;4.45;;;17.80;51.40;;;;;;5090768;28;20431;-59
2021/04/26 16:27:21;;;;;;;9.50;4.28;;;17.70;51.50;;;;;;5069887;28;20102;-58
2021/04/26 16:29:46;;;;;;;6.50;3.90;;;17.60;51.50;;;;;;5089815;28;20043;-57
2021/04/26 16:32:12;;;;;;;10.07;3.78;;;17.50;51.10;;;;;;5090623;28;20384;-53
2021/04/26 16:34:37;;;;;;;8.52;3.60;;;17.50;52.30;;;;;;5087585;28;21131;-51
2021/04/26 16:37:04;;;;;;;8.50;4.47;;;17.50;52.50;;;;;;5084584;28;20088;-52
2021/04/26 16:39:29;;;;;;;8.35;4.40;;;17.50;52.20;;;;;;5084709;28;20046;-52
2021/04/26 16:41:55;;;;;;;6.22;4.13;;;17.40;51.70;;;;;;5088663;28;20024;-49
2021/04/26 16:44:21;;;;;;;12.48;4.63;;;17.30;51.40;;;;;;5084767;28;20115;-52
2021/04/26 16:46:47;;;;;;;8.18;3.90;;;17.00;51.40;;;;;;5086902;28;20086;-53
2021/04/26 16:49:13;;;;;;;10.93;4.07;;;16.90;52.30;;;;;;5088524;28;20035;-49
2021/04/26 16:51:41;;;;;;;9.68;3.83;;;16.80;52.90;;;;;;5090201;22;20048;-56
2021/04/26 16:54:07;;;;;;;9.70;4.25;;;16.90;52.80;;;;;;5065933;28;20513;-58
2021/04/26 16:56:33;;;;;;;9.13;3.80;;;16.70;52.20;;;;;;5066822;28;20028;-56
2021/04/26 16:58:59;;;;;;;7.75;3.90;;;16.60;52.50;;;;;;5071994;28;20025;-57
2021/04/26 17:01:25;;;;;;;12.43;4.60;;;16.60;52.70;;;;;;5082207;28;20024;-54
2021/04/26 17:03:51;;;;;;;11.25;4.18;;;16.50;52.90;;;;;;5089261;28;20028;-57
2021/04/26 17:06:16;;;;;;;6.65;4.30;;;16.50;53.00;;;;;;5089656;28;20486;-56
2021/04/26 17:08:42;;;;;;;8.02;3.85;;;16.40;53.30;;;;;;5088557;28;20055;-55
2021/04/26 17:11:08;;;;;;;13.98;4.50;;;16.30;52.80;;;;;;5088241;28;20028;-57
2021/04/26 17:13:35;;;;;;;17.83;6.90;;;16.10;53.00;;;;;;5089506;28;20085;-57
2021/04/26 17:16:00;;;;;;;6.60;4.43;;;16.10;53.40;;;;;;5089056;28;20031;-56
2021/04/26 17:18:26;;;;;;;10.38;4.45;;;16.10;53.30;;;;;;5089031;28;20047;-58
2021/04/26 17:20:53;;;;;;;6.72;4.07;;;16.00;53.20;;;;;;5089429;28;20038;-57
2021/04/26 17:23:19;;;;;;;11.27;3.78;;;16.00;53.60;;;;;;5091042;28;20531;-57
2021/04/26 17:25:45;;;;;;;7.45;4.13;;;15.90;53.10;;;;;;5090438;28;20042;-55
2021/04/26 17:28:11;;;;;;;12.10;4.32;;;15.70;53.40;;;;;;5088930;28;20039;-58
2021/04/26 17:30:37;;;;;;;9.93;6.63;;;15.70;53.60;;;;;;5089218;28;20032;-56
2021/04/26 17:33:02;;;;;;;7.47;4.10;;;15.60;53.50;;;;;;5089251;28;20690;-57
2021/04/26 17:35:28;;;;;;;10.98;4.10;;;15.70;54.10;;;;;;5087251;28;20032;-56
2021/04/26 17:37:54;;;;;;;9.75;4.05;;;15.60;53.30;;;;;;5088420;28;20036;-55
2021/04/26 17:40:20;;;;;;;7.80;4.22;;;15.60;53.40;;;;;;5087071;28;20093;-57
2021/04/26 17:42:45;;;;;;;7.63;3.80;;;15.50;53.70;;;;;;5088501;28;20114;-58
2021/04/26 17:45:13;;;;;;;8.85;3.72;;;15.50;53.80;;;;;;5087912;28;20055;-57
2021/04/26 17:47:40;;;;;;;8.55;3.97;;;15.40;54.00;;;;;;5085680;28;20040;-57
2021/04/26 17:50:09;;;;;;;4.72;3.25;;;15.40;53.70;;;;;;5085917;28;20031;-58
2021/04/26 17:52:35;;;;;;;6.30;3.50;;;15.30;54.00;;;;;;5085157;28;20028;-57
2021/04/26 17:55:03;;;;;;;9.10;3.90;;;15.30;54.20;;;;;;5086832;28;20028;-57
2021/04/26 17:57:28;;;;;;;9.90;4.18;;;15.20;56.00;;;;;;5084076;28;20572;-58
2021/04/26 17:59:54;;;;;;;8.45;3.97;;;15.20;54.50;;;;;;5084234;28;20025;-58
2021/04/26 18:02:19;;;;;;;7.72;3.67;;;15.10;58.30;;;;;;5086335;28;20485;-59
2021/04/26 18:04:45;;;;;;;7.13;3.90;;;15.00;54.70;;;;;;5086653;28;20115;-58
2021/04/26 18:07:10;;;;;;;7.55;3.50;;;15.00;55.60;;;;;;5084116;28;20568;-58
2021/04/26 18:09:36;;;;;;;8.63;4.03;;;15.00;54.90;;;;;;5086304;28;20036;-55
2021/04/26 18:12:04;;;;;;;8.27;4.28;;;14.90;55.20;;;;;;5085018;28;20027;-55
2021/04/26 18:14:30;;;;;;;8.75;3.97;;;14.80;54.80;;;;;;5083915;28;20489;-57
2021/04/26 18:16:55;;;;;;;7.32;3.97;;;14.70;55.20;;;;;;5084090;28;20036;-59
2021/04/26 18:19:21;;;;;;;6.97;3.50;;;14.60;58.00;;;;;;5081191;28;20036;-57
2021/04/26 18:21:46;;;;;;;6.70;3.55;;;14.50;56.30;;;;;;5087105;28;20086;-57
2021/04/26 18:24:12;;;;;;;6.88;4.00;;;14.40;56.30;;;;;;5079693;28;20046;-58
2021/04/26 18:26:37;;;;;;;7.45;3.78;;;14.40;56.40;;;;;;5083379;28;20028;-58
2021/04/26 18:29:03;;;;;;;8.63;3.85;;;14.20;59.00;;;;;;5085865;28;20103;-58
2021/04/26 18:31:28;;;;;;;7.00;4.57;;;14.20;56.30;;;;;;5080915;28;20020;-55
2021/04/26 18:33:54;;;;;;;8.43;3.80;;;14.20;55.80;;;;;;5086103;28;20430;-57
2021/04/26 18:36:20;;;;;;;6.03;4.13;;;14.10;55.90;;;;;;5085833;28;20067;-57
2021/04/26 18:38:46;;;;;;;6.75;3.80;;;14.10;58.80;;;;;;5080189;28;20732;-56
2021/04/26 18:41:11;;;;;;;8.80;3.45;;;13.90;59.30;;;;;;5083110;28;20293;-57
2021/04/26 18:43:37;;;;;;;8.00;3.50;;;13.90;59.80;;;;;;5085525;28;20826;-56
2021/04/26 18:46:04;;;;;;;7.10;4.05;;;13.80;58.20;;;;;;5078778;28;20431;-57
2021/04/26 18:48:31;;;;;;;9.18;3.55;;;13.80;58.20;;;;;;5081783;28;20152;-56
2021/04/26 18:50:57;;;;;;;5.82;3.72;;;13.70;61.20;;;;;;5081674;28;20043;-57
2021/04/26 18:53:23;;;;;;;9.25;3.90;;;13.70;57.60;;;;;;5084027;28;20097;-57
2021/04/26 18:55:48;;;;;;;9.30;3.78;;;13.70;57.20;;;;;;5086134;28;20032;-58
2021/04/26 18:58:16;;;;;;;7.50;3.58;;;13.60;57.40;;;;;;5086128;28;20457;-57
2021/04/26 19:00:42;;;;;;;6.45;3.60;;;13.50;59.50;;;;;;5085723;28;20028;-57
2021/04/26 19:03:08;;;;;;;9.55;4.07;;;13.50;57.70;;;;;;5087410;28;20435;-59
2021/04/26 19:05:34;;;;;;;9.35;3.88;;;13.50;57.60;;;;;;5084932;28;20060;-57
2021/04/26 19:08:00;;;;;;;7.50;4.07;;;13.40;57.30;;;;;;5088819;28;20482;-57
2021/04/26 19:10:28;;;;;;;6.85;3.58;;;13.40;58.60;;;;;;5088120;28;20101;-58
2021/04/26 19:12:53;;;;;;;7.38;3.58;;;13.40;59.10;;;;;;5083255;28;20081;-57
2021/04/26 19:15:19;;;;;;;8.10;3.42;;;13.30;59.00;;;;;;5085497;28;20031;-57
2021/04/26 19:17:45;;;;;;;5.40;3.67;;;13.20;60.10;;;;;;5085696;28;20034;-58
2021/04/26 19:20:12;;;;;;;5.97;3.45;;;13.20;58.90;;;;;;5084716;28;20679;-56
2021/04/26 19:22:38;;;;;;;9.88;3.58;;;13.10;64.00;;;;;;5083801;28;20731;-57
2021/04/26 19:25:06;;;;;;;9.20;3.47;;;13.00;60.50;;;;;;5085559;28;20454;-57
2021/04/26 19:27:32;;;;;;;6.35;3.60;;;13.00;59.70;;;;;;5083365;28;20058;-56
2021/04/26 19:29:58;;;;;;;7.88;4.00;;;12.90;59.40;;;;;;5083136;28;20044;-57
2021/04/26 19:32:25;;;;;;;5.55;3.25;;;12.90;59.70;;;;;;5088191;28;20105;-56
2021/04/26 19:34:51;;;;;;;5.68;3.90;;;12.80;63.60;;;;;;5084538;28;20024;-57
2021/04/26 19:37:17;;;;;;;9.07;4.30;;;12.80;60.00;;;;;;5084775;28;20460;-54
2021/04/26 19:39:43;;;;;;;6.05;3.88;;;12.80;59.90;;;;;;5085153;28;20039;-56
2021/04/26 19:42:09;;;;;;;6.03;3.55;;;12.80;59.80;;;;;;5087093;28;20039;-58
2021/04/26 19:44:35;;;;;;;9.27;4.00;;;12.80;60.40;;;;;;5084281;28;20028;-57
2021/04/26 19:47:00;;;;;;;7.22;4.05;;;12.70;60.50;;;;;;5084386;28;20688;-57
2021/04/26 19:49:26;;;;;;;7.82;3.58;;;12.70;61.50;;;;;;5084317;28;20047;-56
2021/04/26 19:51:52;;;;;;;5.97;3.80;;;12.60;63.50;;;;;;5085641;28;20058;-57
2021/04/26 19:54:18;;;;;;;10.68;3.67;;;12.50;62.80;;;;;;5086065;28;20032;-57
2021/04/26 19:56:43;;;;;;;7.63;4.70;;;12.50;64.20;;;;;;5083068;28;20033;-58
2021/04/26 19:59:10;;;;;;;8.40;4.40;;;12.40;64.10;;;;;;5084032;28;20031;-57
2021/04/26 20:01:35;;;;;;;9.32;4.10;;;12.30;63.00;;;;;;5086701;28;20024;-56
2021/04/26 20:04:01;;;;;;;4.22;3.25;;;12.30;65.40;;;;;;5080818;28;20789;-58
2021/04/26 20:06:26;;;;;;;7.78;3.72;;;12.30;62.60;;;;;;5088421;28;20027;-56
2021/04/26 20:08:53;;;;;;;5.88;3.50;;;12.20;64.30;;;;;;5087282;28;20031;-57
2021/04/26 20:11:19;;;;;;;6.20;4.10;;;12.20;66.00;;;;;;5088634;28;20051;-56
2021/04/26 20:13:44;;;;;;;13.15;3.47;;;12.20;63.80;;;;;;5084445;28;20040;-54
2021/04/26 20:16:10;;;;;;;6.70;4.50;;;12.20;63.00;;;;;;5047498;28;20556;-56
2021/04/26 20:18:36;;;;;;;8.25;3.97;;;12.10;63.00;;;;;;5085450;28;20034;-57
2021/04/26 20:21:01;;;;;;;6.15;3.92;;;12.10;64.40;;;;;;5085589;28;20040;-56
2021/04/26 20:23:27;;;;;;;5.70;4.10;;;12.10;64.80;;;;;;5083789;28;20028;-57
2021/04/26 20:25:52;;;;;;;12.15;4.40;;;12.10;63.90;;;;;;5086048;28;20046;-57
2021/04/26 20:28:18;;;;;;;6.82;4.00;;;12.00;64.00;;;;;;5085870;28;20054;-57
2021/04/26 20:30:45;;;;;;;9.15;3.75;;;12.00;64.90;;;;;;5085798;28;20055;-58
2021/04/26 20:33:10;;;;;;;7.25;4.38;;;11.90;66.70;;;;;;5086054;28;20627;-59
2021/04/26 20:35:36;;;;;;;9.80;3.95;;;11.90;65.30;;;;;;5087630;28;20016;-57
2021/04/26 20:38:06;;;;;;;8.20;3.80;;;11.80;65.50;;;;;;5087541;28;20031;-57
2021/04/26 20:40:33;;;;;;;6.03;4.07;;;11.80;64.70;;;;;;5081233;28;20045;-55
2021/04/26 20:42:59;;;;;;;6.10;4.53;;;11.80;65.30;;;;;;5081989;28;20028;-56
2021/04/26 20:45:25;;;;;;;4.95;3.75;;;11.80;65.40;;;;;;5086874;28;20569;-57
2021/04/26 20:47:54;;;;;;;7.35;4.28;;;11.80;65.30;;;;;;5085973;28;20477;-57
2021/04/26 20:50:21;;;;;;;8.32;3.83;;;11.70;64.80;;;;;;5081826;28;20028;-57
2021/04/26 20:52:47;;;;;;;6.32;3.60;;;11.70;68.10;;;;;;5086970;28;20024;-54
2021/04/26 20:55:13;;;;;;;6.03;4.00;;;11.70;65.40;;;;;;5077692;28;20386;-57
2021/04/26 20:57:38;;;;;;;6.97;4.47;;;11.70;65.40;;;;;;5086704;28;20032;-57
2021/04/26 21:00:07;;;;;;;8.30;4.45;;;11.60;66.00;;;;;;5087969;28;20032;-55
2021/04/26 21:02:33;;;;;;;6.60;3.60;;;11.60;66.70;;;;;;5082055;28;20032;-56
2021/04/26 21:05:00;;;;;;;9.13;4.60;;;11.50;66.20;;;;;;5086450;28;20048;-56
2021/04/26 21:07:25;;;;;;;9.55;3.78;;;11.50;66.40;;;;;;5082095;28;20024;-56
2021/04/26 21:09:51;;;;;;;9.88;3.60;;;11.40;68.70;;;;;;5080092;28;20066;-55
2021/04/26 21:12:16;;;;;;;9.15;4.25;;;11.40;67.30;;;;;;5086117;28;20036;-58
2021/04/26 21:14:42;;;;;;;8.05;4.03;;;11.40;66.00;;;;;;5088807;28;20081;-56
2021/04/26 21:17:07;;;;;;;10.32;4.68;;;11.40;67.00;;;;;;5081879;28;20028;-57
2021/04/26 21:19:33;;;;;;;9.00;4.38;;;11.30;70.70;;;;;;5087225;28;20032;-58
2021/04/26 21:21:59;;;;;;;6.82;3.88;;;11.20;70.40;;;;;;5081214;28;20035;-56
2021/04/26 21:24:26;;;;;;;8.63;4.03;;;11.10;70.50;;;;;;5083595;28;20031;-58
2021/04/26 21:26:53;;;;;;;5.93;3.75;;;11.10;70.00;;;;;;5087348;28;20038;-57
2021/04/26 21:29:18;;;;;;;5.53;3.60;;;11.00;69.70;;;;;;5090572;28;20575;-56
2021/04/26 21:31:44;;;;;;;7.75;3.83;;;11.00;70.90;;;;;;5087630;28;20029;-54